createdAt,value
2023-04-21T00:00:10.381Z,100562.63
2023-04-21T00:02:39.772Z,100560.81
2023-04-21T00:05:13.917Z,100558.03
2023-04-21T00:07:41.676Z,100541.84
2023-04-21T00:10:10.817Z,100550.06
2023-04-21T00:12:38.481Z,100545.66
2023-04-21T00:15:06.899Z,100540.44
2023-04-21T00:17:34.273Z,100531.56
2023-04-21T00:20:01.642Z,100516.59
2023-04-21T00:22:28.608Z,100494.63
2023-04-21T00:24:56.006Z,100492.94
2023-04-21T00:27:23.365Z,100474.38
2023-04-21T00:29:50.758Z,100463.75
2023-04-21T00:32:18.206Z,100462.91
2023-04-21T00:34:45.989Z,100458.50
2023-04-21T00:37:13.356Z,100452.25
2023-04-21T00:39:40.820Z,100453.03
2023-04-21T00:42:08.221Z,100457.25
2023-04-21T00:44:35.626Z,100441.44
2023-04-21T00:47:03.101Z,100445.03
2023-04-21T00:49:30.652Z,100436.13
2023-04-21T00:51:58.754Z,100419.34
2023-04-21T00:54:26.214Z,100425.19
2023-04-21T00:56:54.005Z,100415.66
2023-04-21T00:59:21.531Z,100416.44
2023-04-21T01:01:48.966Z,100407.47
2023-04-21T01:04:16.475Z,100403.06
2023-04-21T01:06:43.898Z,100407.41
2023-04-21T01:09:14.267Z,100410.88
2023-04-21T01:11:41.628Z,100407.22
2023-04-21T01:14:09.081Z,100413.13
2023-04-21T01:16:36.874Z,100405.16
2023-04-21T01:19:06.000Z,100391.97
2023-04-21T01:21:43.065Z,100398.94
2023-04-21T01:24:11.687Z,100411.38
2023-04-21T01:26:39.216Z,100409.38
2023-04-21T01:29:06.906Z,100410.16
2023-04-21T01:31:34.368Z,100400.97
2023-04-21T01:34:04.964Z,100393.75
2023-04-21T01:36:32.664Z,100382.09
2023-04-21T01:39:00.057Z,100357.16
2023-04-21T01:41:27.399Z,100349.34
2023-04-21T01:43:54.742Z,100329.97
2023-04-21T01:46:22.179Z,100317.97
2023-04-21T01:48:49.555Z,100316.44
2023-04-21T01:51:16.940Z,100308.25
2023-04-21T01:53:44.292Z,100311.22
2023-04-21T01:56:15.241Z,100308.78
2023-04-21T01:58:42.646Z,100299.25
2023-04-21T02:01:10.048Z,100310.03
2023-04-21T02:03:37.390Z,100305.56
2023-04-21T02:06:04.862Z,100301.22
2023-04-21T02:08:31.844Z,100308.03
2023-04-21T02:11:01.811Z,100310.59
2023-04-21T02:13:29.167Z,100302.78
2023-04-21T02:16:06.111Z,100311.81
2023-04-21T02:18:40.413Z,100319.69
2023-04-21T02:21:07.508Z,100324.88
2023-04-21T02:23:34.878Z,100314.06
2023-04-21T02:26:01.960Z,100318.78
2023-04-21T02:28:29.333Z,100324.13
2023-04-21T02:30:56.790Z,100334.41
2023-04-21T02:33:24.281Z,100335.16
2023-04-21T02:35:51.670Z,100327.16
2023-04-21T02:38:19.021Z,100346.56
2023-04-21T02:40:45.969Z,100352.88
2023-04-21T02:43:14.742Z,100355.47
2023-04-21T02:45:42.070Z,100365.06
2023-04-21T02:48:09.813Z,100355.97
2023-04-21T02:50:38.157Z,100371.03
2023-04-21T02:53:05.692Z,100379.13
2023-04-21T02:55:33.227Z,100385.34
2023-04-21T02:58:00.181Z,100396.78
2023-04-21T03:00:27.236Z,100400.38
2023-04-21T03:02:54.585Z,100412.88
2023-04-21T03:05:21.846Z,100410.00
2023-04-21T03:07:49.187Z,100408.28
2023-04-21T03:10:16.634Z,100413.44
2023-04-21T03:12:43.618Z,100415.22
2023-04-21T03:15:11.506Z,100409.03
2023-04-21T03:17:39.099Z,100414.41
2023-04-21T03:20:08.544Z,100418.75
2023-04-21T03:22:36.363Z,100417.28
2023-04-21T03:25:03.453Z,100425.34
2023-04-21T03:27:30.935Z,100421.88
2023-04-21T03:29:58.406Z,100435.13
2023-04-21T03:32:25.932Z,100441.19
2023-04-21T03:34:53.403Z,100449.25
2023-04-21T03:37:20.637Z,100437.69
2023-04-21T03:39:48.000Z,100435.03
2023-04-21T03:42:14.961Z,100450.03
2023-04-21T03:44:42.276Z,100450.75
2023-04-21T03:47:09.641Z,100446.09
2023-04-21T03:49:36.675Z,100457.41
2023-04-21T03:52:03.880Z,100467.31
2023-04-21T03:54:31.387Z,100461.97
2023-04-21T03:56:58.757Z,100462.84
2023-04-21T03:59:26.115Z,100467.00
2023-04-21T04:01:53.517Z,100468.44
2023-04-21T04:04:21.201Z,100468.34
2023-04-21T04:06:48.740Z,100475.75
2023-04-21T04:09:15.667Z,100482.09
2023-04-21T04:11:43.029Z,100491.03
2023-04-21T04:14:10.400Z,100499.00
2023-04-21T04:16:37.493Z,100498.31
2023-04-21T04:19:04.737Z,100494.41
2023-04-21T04:21:32.599Z,100492.81
2023-04-21T04:24:00.518Z,100493.94
2023-04-21T04:26:27.711Z,100487.63
2023-04-21T04:28:56.621Z,100492.66
2023-04-21T04:31:25.722Z,100495.53
2023-04-21T04:33:55.512Z,100497.31
2023-04-21T04:36:27.825Z,100497.13
2023-04-21T04:38:54.808Z,100510.03
2023-04-21T04:41:23.172Z,100510.19
2023-04-21T04:43:51.690Z,100513.78
2023-04-21T04:46:20.772Z,100519.06
2023-04-21T04:48:52.122Z,100515.81
2023-04-21T04:51:19.770Z,100523.56
2023-04-21T04:53:47.617Z,100526.69
2023-04-21T04:56:15.246Z,100531.44
2023-04-21T04:58:42.998Z,100543.00
2023-04-21T05:01:30.921Z,100550.44
2023-04-21T05:03:58.906Z,100553.34
2023-04-21T05:06:26.464Z,100550.00
2023-04-21T05:08:53.888Z,100544.00
2023-04-21T05:11:21.257Z,100542.31
2023-04-21T05:13:48.236Z,100557.25
2023-04-21T05:16:15.295Z,100577.56
2023-04-21T05:18:42.648Z,100578.31
2023-04-21T05:21:09.710Z,100581.59
2023-04-21T05:23:37.203Z,100582.13
2023-04-21T05:26:05.037Z,100591.94
2023-04-21T05:28:32.640Z,100595.53
2023-04-21T05:31:00.025Z,100594.66
2023-04-21T05:33:27.283Z,100604.16
2023-04-21T05:35:54.267Z,100613.75
2023-04-21T05:38:21.336Z,100622.38
2023-04-21T05:40:57.231Z,100626.13
2023-04-21T05:43:24.293Z,100658.47
2023-04-21T05:45:51.561Z,100676.75
2023-04-21T05:48:18.670Z,100682.09
2023-04-21T05:50:46.042Z,100691.66
2023-04-21T05:53:13.204Z,100698.91
2023-04-21T05:55:40.598Z,100703.13
2023-04-21T05:58:07.779Z,100701.03
2023-04-21T06:00:34.848Z,100707.69
2023-04-21T06:03:02.319Z,100706.69
2023-04-21T06:05:29.420Z,100702.28
2023-04-21T06:07:56.457Z,100704.66
2023-04-21T06:10:23.630Z,100722.28
2023-04-21T06:12:50.813Z,100730.97
2023-04-21T06:15:17.886Z,100708.28
2023-04-21T06:17:45.025Z,100738.31
2023-04-21T06:20:12.628Z,100746.50
2023-04-21T06:22:40.106Z,100765.78
2023-04-21T06:25:07.639Z,100773.56
2023-04-21T06:27:34.609Z,100774.44
2023-04-21T06:30:02.042Z,100785.44
2023-04-21T06:32:29.471Z,100798.56
2023-04-21T06:34:56.839Z,100802.66
2023-04-21T06:37:23.899Z,100818.06
2023-04-21T06:39:50.959Z,100830.56
2023-04-21T06:42:17.982Z,100828.00
2023-04-21T06:44:45.041Z,100840.84
2023-04-21T06:47:12.172Z,100838.16
2023-04-21T06:49:39.576Z,100840.28
2023-04-21T06:52:06.580Z,100852.88
2023-04-21T06:54:34.007Z,100856.34
2023-04-21T06:57:01.003Z,100873.44
2023-04-21T06:59:27.989Z,100883.47
2023-04-21T07:01:55.086Z,100890.78
2023-04-21T07:04:22.389Z,100900.22
2023-04-21T07:06:49.926Z,100900.28
2023-04-21T07:09:17.329Z,100906.59
2023-04-21T07:11:44.590Z,100922.00
2023-04-21T07:14:11.645Z,100924.09
2023-04-21T07:16:38.844Z,100934.44
2023-04-21T07:19:05.962Z,100948.69
2023-04-21T07:21:36.193Z,100923.94
2023-04-21T07:24:04.139Z,100946.69
2023-04-21T07:26:31.819Z,100935.84
2023-04-21T07:28:59.359Z,100949.50
2023-04-21T07:31:26.501Z,100960.03
2023-04-21T07:33:53.515Z,100958.97
2023-04-21T07:36:20.857Z,100963.28
2023-04-21T07:38:47.853Z,100967.22
2023-04-21T07:41:14.911Z,100997.09
2023-04-21T07:43:41.891Z,101014.50
2023-04-21T07:46:09.327Z,101019.03
2023-04-21T07:48:36.415Z,101020.50
2023-04-21T07:51:03.680Z,101044.78
2023-04-21T07:53:31.214Z,101062.13
2023-04-21T07:55:58.715Z,101057.41
2023-04-21T07:58:26.165Z,101064.38
2023-04-21T08:00:53.206Z,101082.09
2023-04-21T08:03:22.827Z,101076.81
2023-04-21T08:05:51.842Z,101084.22
2023-04-21T08:08:20.543Z,101110.28
2023-04-21T08:10:47.763Z,101113.91
2023-04-21T08:13:15.019Z,101094.69
2023-04-21T08:15:42.074Z,101101.22
2023-04-21T08:18:09.758Z,101112.50
2023-04-21T08:20:36.750Z,101104.63
2023-04-21T08:23:03.982Z,101123.88
2023-04-21T08:25:31.165Z,101111.28
2023-04-21T08:27:58.611Z,101107.75
2023-04-21T08:30:28.039Z,101101.88
2023-04-21T08:32:55.181Z,101100.53
2023-04-21T08:35:22.210Z,101115.97
2023-04-21T08:37:50.151Z,101092.25
2023-04-21T08:40:19.482Z,101088.44
2023-04-21T08:42:47.041Z,101075.47
2023-04-21T08:45:14.264Z,101034.31
2023-04-21T08:47:42.268Z,101034.41
2023-04-21T08:50:14.777Z,101017.88
2023-04-21T08:52:41.807Z,100996.31
2023-04-21T08:55:11.715Z,100961.28
2023-04-21T08:57:38.707Z,100940.44
2023-04-21T09:00:08.215Z,100905.84
2023-04-21T09:03:02.167Z,100881.66
2023-04-21T09:05:32.192Z,100831.66
2023-04-21T09:08:13.283Z,100813.66
2023-04-21T09:10:48.534Z,100805.56
2023-04-21T09:13:16.710Z,100778.75
2023-04-21T09:15:47.504Z,100740.91
2023-04-21T09:18:24.396Z,100705.91
2023-04-21T09:21:06.138Z,100639.56
2023-04-21T09:23:47.797Z,100608.81
2023-04-21T09:26:17.711Z,100593.31
2023-04-21T09:28:46.959Z,100549.03
2023-04-21T09:31:16.946Z,100514.53
2023-04-21T09:33:59.407Z,100457.06
2023-04-21T09:36:30.704Z,100459.28
2023-04-21T09:41:33.331Z,100390.41
2023-04-21T09:44:02.012Z,100332.94
2023-04-21T09:46:33.089Z,100328.47
2023-04-21T09:49:04.051Z,100284.19
2023-04-21T09:56:54.196Z,100162.06
2023-04-21T09:59:27.790Z,100151.31
2023-04-21T10:01:58.326Z,100113.25
2023-04-21T10:04:26.746Z,100171.63
2023-04-21T10:06:56.004Z,100153.22
2023-04-21T10:09:25.981Z,100054.28
2023-04-21T10:11:55.738Z,100061.75
2023-04-21T10:14:23.365Z,100055.50
2023-04-21T10:17:07.826Z,100013.03
2023-04-21T10:19:40.149Z,100027.63
2023-04-21T10:22:09.905Z,100041.34
2023-04-21T10:24:41.986Z,99999.00
2023-04-21T10:27:13.482Z,99975.28
2023-04-21T10:29:55.476Z,100001.09
2023-04-21T10:32:43.471Z,99983.09
2023-04-21T10:35:13.542Z,99974.88
2023-04-21T10:37:44.805Z,99878.97
2023-04-21T10:43:06.659Z,99880.25
2023-04-21T10:45:33.795Z,99918.09
2023-04-21T10:48:03.083Z,99912.44
2023-04-21T10:50:31.773Z,99832.78
2023-04-21T10:53:11.548Z,99889.59
2023-04-21T10:55:40.058Z,99779.25
2023-04-21T10:58:09.371Z,99822.88
2023-04-21T11:00:40.481Z,99838.09
2023-04-21T11:03:08.922Z,99899.69
2023-04-21T11:05:41.146Z,99868.00
2023-04-21T11:08:16.031Z,99823.81
2023-04-21T11:10:47.977Z,99744.75
2023-04-21T11:13:15.586Z,99735.41
2023-04-21T11:15:43.144Z,99710.91
2023-04-21T11:18:10.405Z,99721.44
2023-04-21T11:20:42.297Z,99673.72
2023-04-21T11:23:09.762Z,99721.38
2023-04-21T11:25:38.325Z,99608.81
2023-04-21T11:28:06.570Z,99708.53
2023-04-21T11:30:34.902Z,99705.06
2023-04-21T11:33:02.870Z,99660.81
2023-04-21T11:35:31.895Z,99546.06
2023-04-21T11:37:59.019Z,99510.75
2023-04-21T11:40:26.434Z,99558.88
2023-04-21T11:42:53.969Z,99564.94
2023-04-21T11:45:22.658Z,99559.16
2023-04-21T11:47:50.462Z,99606.25
2023-04-21T11:50:33.672Z,99462.47
2023-04-21T11:53:03.179Z,99402.59
2023-04-21T11:55:30.305Z,99470.41
2023-04-21T11:57:57.997Z,99413.13
2023-04-21T12:00:25.672Z,99474.19
2023-04-21T12:02:57.063Z,99507.25
2023-04-21T12:05:34.670Z,99509.19
2023-04-21T12:08:02.147Z,99368.34
2023-04-21T12:10:29.886Z,99449.06
2023-04-21T12:12:57.769Z,99401.19
2023-04-21T12:15:26.032Z,99384.09
2023-04-21T12:17:54.825Z,99429.19
2023-04-21T12:20:24.703Z,99308.38
2023-04-21T12:22:52.609Z,99291.00
2023-04-21T12:25:20.246Z,99198.47
2023-04-21T12:27:52.174Z,99332.47
2023-04-21T12:31:15.433Z,99169.63
2023-04-21T12:34:06.648Z,99285.31
2023-04-21T12:36:35.884Z,99297.31
2023-04-21T12:39:04.230Z,99291.50
2023-04-21T12:41:31.468Z,99220.47
2023-04-21T12:43:58.494Z,99057.03
2023-04-21T12:46:25.626Z,99039.69
2023-04-21T12:48:53.588Z,99195.84
2023-04-21T12:51:20.988Z,99185.13
2023-04-21T12:53:49.201Z,99139.53
2023-04-21T12:56:16.812Z,99104.44
2023-04-21T12:58:43.932Z,98969.66
2023-04-21T13:01:14.918Z,99059.00
2023-04-21T13:03:42.958Z,99097.53
2023-04-21T13:06:11.895Z,98954.59
2023-04-21T13:08:39.395Z,99038.91
2023-04-21T13:11:06.976Z,98931.38
2023-04-21T13:13:34.487Z,98774.22
2023-04-21T13:16:01.866Z,98981.34
2023-04-21T13:18:29.217Z,98830.25
2023-04-21T13:20:56.746Z,98960.44
2023-04-21T13:23:24.265Z,98940.66
2023-04-21T13:25:51.919Z,98943.16
2023-04-21T13:28:19.391Z,98811.47
2023-04-21T13:30:47.017Z,98863.00
2023-04-21T13:33:14.651Z,98895.19
2023-04-21T13:35:41.745Z,98850.53
2023-04-21T13:38:09.178Z,98882.25
2023-04-21T13:40:36.821Z,98848.59
2023-04-21T13:43:04.616Z,98893.41
2023-04-21T13:45:32.412Z,98728.59
2023-04-21T13:47:59.657Z,98725.34
2023-04-21T13:50:27.095Z,98841.09
2023-04-21T13:52:54.532Z,98763.31
2023-04-21T13:55:22.139Z,98646.69
2023-04-21T13:57:49.492Z,98553.38
2023-04-21T14:00:17.104Z,98571.00
2023-04-21T14:02:44.671Z,98498.88
2023-04-21T14:05:12.885Z,98622.09
2023-04-21T14:07:40.452Z,98666.38
2023-04-21T14:10:08.230Z,98712.91
2023-04-21T14:12:35.704Z,98646.69
2023-04-21T14:15:03.351Z,98635.59
2023-04-21T14:17:30.879Z,98579.66
2023-04-21T14:19:58.325Z,98614.66
2023-04-21T14:22:25.771Z,98557.56
2023-04-21T14:24:53.168Z,98577.94
2023-04-21T14:27:20.553Z,98504.66
2023-04-21T14:29:47.979Z,98566.31
2023-04-21T14:32:15.494Z,98569.97
2023-04-21T14:34:43.102Z,98622.00
2023-04-21T14:37:10.508Z,98604.63
2023-04-21T14:39:38.153Z,98399.28
2023-04-21T14:42:05.462Z,98396.91
2023-04-21T14:44:33.696Z,98512.03
2023-04-21T14:47:09.787Z,98500.66
2023-04-21T14:49:39.115Z,98313.31
2023-04-21T14:52:07.339Z,98289.84
2023-04-21T14:54:34.979Z,98330.97
2023-04-21T14:59:33.124Z,98214.06
2023-04-21T15:02:01.124Z,98288.91
2023-04-21T15:04:28.894Z,98260.63
2023-04-21T15:06:56.404Z,98293.88
2023-04-21T15:09:24.030Z,98152.84
2023-04-21T15:11:51.553Z,98160.78
2023-04-21T15:14:19.146Z,98092.88
2023-04-21T15:16:46.748Z,98259.00
2023-04-21T15:19:14.201Z,98229.72
2023-04-21T15:21:41.625Z,98176.22
2023-04-21T15:24:10.329Z,98142.63
2023-04-21T15:26:40.494Z,98217.53
2023-04-21T15:29:07.997Z,98091.72
2023-04-21T15:31:36.009Z,98110.47
2023-04-21T15:34:03.887Z,98012.50
2023-04-21T15:36:32.128Z,98033.22
2023-04-21T15:38:59.572Z,98114.00
2023-04-21T15:41:29.683Z,98106.84
2023-04-21T15:43:58.101Z,98079.09
2023-04-21T15:46:25.777Z,98115.13
2023-04-21T15:48:53.215Z,98062.75
2023-04-21T15:51:20.499Z,98013.59
2023-04-21T15:53:49.638Z,98099.25
2023-04-21T15:56:17.248Z,98148.63
2023-04-21T15:58:44.447Z,98214.66
2023-04-21T16:01:12.393Z,98017.63
2023-04-21T16:03:40.268Z,98006.34
2023-04-21T16:06:08.035Z,98012.91
2023-04-21T16:08:35.454Z,98035.50
2023-04-21T16:11:02.987Z,98046.25
2023-04-21T16:13:29.952Z,98087.00
2023-04-21T16:15:57.173Z,98092.28
2023-04-21T16:18:24.332Z,98126.97
2023-04-21T16:20:51.885Z,98089.50
2023-04-21T16:23:19.741Z,98050.00
2023-04-21T16:25:47.775Z,98047.41
2023-04-21T16:28:14.873Z,98063.75
2023-04-21T16:30:43.784Z,98183.72
2023-04-21T16:33:11.712Z,98337.72
2023-04-21T16:35:39.462Z,98526.50
2023-04-21T16:38:06.783Z,98551.56
2023-04-21T16:40:34.351Z,98606.69
2023-04-21T16:43:01.823Z,98625.13
2023-04-21T16:45:30.028Z,98610.25
2023-04-21T16:47:58.135Z,98595.84
2023-04-21T16:50:25.480Z,98628.09
2023-04-21T16:52:52.667Z,98606.41
2023-04-21T16:55:20.319Z,98539.91
2023-04-21T16:57:47.471Z,98496.59
2023-04-21T17:00:15.275Z,98543.25
2023-04-21T17:02:42.430Z,98567.06
2023-04-21T17:05:12.185Z,98641.66
2023-04-21T17:07:42.496Z,98636.53
2023-04-21T17:10:10.319Z,98633.34
2023-04-21T17:12:37.696Z,98687.44
2023-04-21T17:15:05.666Z,98674.94
2023-04-21T17:17:45.086Z,98658.09
2023-04-21T17:20:14.443Z,98600.53
2023-04-21T17:22:42.394Z,98660.97
2023-04-21T17:25:10.403Z,98671.47
2023-04-21T17:27:38.705Z,98656.34
2023-04-21T17:30:07.988Z,98679.06
2023-04-21T17:32:40.524Z,98685.56
2023-04-21T17:35:08.046Z,98707.69
2023-04-21T17:37:35.258Z,98750.63
2023-04-21T17:40:03.311Z,98770.47
2023-04-21T17:42:31.154Z,98785.22
2023-04-21T17:44:58.693Z,98797.28
2023-04-21T17:47:25.908Z,98815.19
2023-04-21T17:49:52.995Z,98822.97
2023-04-21T17:52:19.978Z,98827.56
2023-04-21T17:54:47.490Z,98824.16
2023-04-21T17:57:14.885Z,98829.56
2023-04-21T17:59:42.362Z,98821.38
2023-04-21T18:02:09.783Z,98833.06
2023-04-21T18:04:37.285Z,98830.34
2023-04-21T18:07:04.782Z,98849.34
2023-04-21T18:09:32.042Z,98835.91
2023-04-21T18:11:59.474Z,98851.06
2023-04-21T18:14:26.929Z,98870.06
2023-04-21T18:16:54.977Z,98888.31
2023-04-21T18:19:22.073Z,98902.44
2023-04-21T18:21:49.233Z,98924.13
2023-04-21T18:24:16.374Z,98942.56
2023-04-21T18:26:43.763Z,98959.44
2023-04-21T18:29:10.868Z,98972.94
2023-04-21T18:31:38.078Z,98976.28
2023-04-21T18:34:06.101Z,98990.84
2023-04-21T18:36:34.460Z,99001.31
2023-04-21T18:39:02.633Z,99003.19
2023-04-21T18:41:29.754Z,99008.41
2023-04-21T18:43:56.863Z,99012.88
2023-04-21T18:46:24.162Z,99018.09
2023-04-21T18:48:51.847Z,99020.97
2023-04-21T18:51:19.201Z,99047.56
2023-04-21T18:53:46.400Z,99053.84
2023-04-21T18:56:13.774Z,99082.97
2023-04-21T19:04:09.384Z,99167.06
2023-04-21T19:06:37.212Z,99196.88
2023-04-21T19:09:04.913Z,99199.88
2023-04-21T19:11:33.583Z,99204.34
2023-04-21T19:14:01.134Z,99232.63
2023-04-21T19:16:29.037Z,99240.66
2023-04-21T19:18:56.191Z,99255.06
2023-04-21T19:21:23.388Z,99265.13
2023-04-21T19:23:50.842Z,99277.47
2023-04-21T19:26:21.607Z,99297.72
2023-04-21T19:28:49.279Z,99307.97
2023-04-21T19:31:19.358Z,99334.28
2023-04-21T19:33:46.553Z,99340.00
2023-04-21T19:36:13.915Z,99341.78
2023-04-21T19:38:41.320Z,99360.44
2023-04-21T19:41:08.811Z,99388.38
2023-04-21T19:43:35.834Z,99403.47
2023-04-21T19:46:03.282Z,99396.72
2023-04-21T19:48:30.388Z,99408.94
2023-04-21T19:50:57.672Z,99424.69
2023-04-21T19:53:24.831Z,99433.47
2023-04-21T19:55:52.977Z,99427.47
2023-04-21T19:58:36.315Z,99434.50
2023-04-21T20:01:06.571Z,99458.22
2023-04-21T20:03:34.291Z,99459.06
2023-04-21T20:06:02.359Z,99462.56
2023-04-21T20:08:29.856Z,99469.63
2023-04-21T20:10:57.307Z,99472.31
2023-04-21T20:13:24.385Z,99473.16
2023-04-21T20:15:51.834Z,99482.00
2023-04-21T20:18:19.455Z,99478.53
2023-04-21T20:20:46.921Z,99479.34
2023-04-21T20:23:14.410Z,99496.16
2023-04-21T20:25:43.499Z,99510.28
2023-04-21T20:28:10.982Z,99509.41
2023-04-21T20:30:38.363Z,99520.81
2023-04-21T20:33:05.808Z,99526.09
2023-04-21T20:35:39.268Z,99526.06
2023-04-21T20:38:10.499Z,99530.50
2023-04-21T20:40:38.168Z,99541.94
2023-04-21T20:43:06.546Z,99546.34
2023-04-21T20:45:34.691Z,99544.72
2023-04-21T20:48:02.071Z,99552.72
2023-04-21T20:50:29.523Z,99564.16
2023-04-21T20:52:56.962Z,99569.44
2023-04-21T20:55:24.394Z,99575.63
2023-04-21T20:57:51.753Z,99591.50
2023-04-21T21:00:19.489Z,99597.69
2023-04-21T21:02:47.508Z,99608.25
2023-04-21T21:05:14.982Z,99616.16
2023-04-21T21:07:42.496Z,99607.25
2023-04-21T21:10:11.654Z,99612.53
2023-04-21T21:13:07.424Z,99616.91
2023-04-21T21:15:34.876Z,99619.56
2023-04-21T21:18:02.833Z,99619.50
2023-04-21T21:20:30.667Z,99617.72
2023-04-21T21:22:58.267Z,99616.00
2023-04-21T21:25:25.872Z,99633.59
2023-04-21T21:27:53.370Z,99628.25
2023-04-21T21:30:21.251Z,99629.13
2023-04-21T21:32:49.761Z,99630.06
2023-04-21T21:35:17.238Z,99640.75
2023-04-21T21:37:44.528Z,99628.41
2023-04-21T21:40:12.245Z,99639.09
2023-04-21T21:42:39.603Z,99644.41
2023-04-21T21:45:07.745Z,99655.91
2023-04-21T21:47:38.269Z,99663.91
2023-04-21T21:50:08.597Z,99665.66
2023-04-21T21:52:36.120Z,99664.81
2023-04-21T21:55:03.506Z,99675.47
2023-04-21T21:57:30.882Z,99676.28
2023-04-21T22:00:00.397Z,99683.41
2023-04-21T22:02:27.801Z,99682.53
2023-04-21T22:04:56.404Z,99687.91
2023-04-21T22:07:25.224Z,99690.56
2023-04-21T22:09:52.866Z,99700.28
2023-04-21T22:12:20.582Z,99707.44
2023-04-21T22:14:47.991Z,99703.88
2023-04-21T22:17:15.945Z,99704.78
2023-04-21T22:19:43.267Z,99710.13
2023-04-21T22:22:10.644Z,99727.81
2023-04-21T22:24:38.222Z,99739.31
2023-04-21T22:27:05.711Z,99739.34
2023-04-21T22:29:33.162Z,99743.75
2023-04-21T22:32:01.034Z,99756.13
2023-04-21T22:34:28.536Z,99748.19
2023-04-21T22:36:55.654Z,99746.47
2023-04-21T22:39:23.148Z,99758.81
2023-04-21T22:41:51.323Z,99760.63
2023-04-21T22:44:18.653Z,99763.28
2023-04-21T22:46:46.049Z,99780.94
2023-04-21T22:49:14.302Z,99771.25
2023-04-21T22:51:42.395Z,99782.72
2023-04-21T22:54:09.827Z,99784.47
2023-04-21T22:56:37.411Z,99779.22
2023-04-21T22:59:04.839Z,99780.09
2023-04-21T23:01:32.301Z,99788.94
2023-04-21T23:03:59.998Z,99790.72
2023-04-21T23:06:28.431Z,99781.06
2023-04-21T23:08:55.831Z,99784.56
2023-04-21T23:11:23.140Z,99789.03
2023-04-21T23:13:50.254Z,99791.69
2023-04-21T23:16:17.625Z,99801.44
2023-04-21T23:18:44.989Z,99805.84
2023-04-21T23:21:12.500Z,99803.22
2023-04-21T23:23:39.911Z,99819.97
2023-04-21T23:26:07.244Z,99823.53
2023-04-21T23:28:34.705Z,99825.31
2023-04-21T23:31:02.088Z,99835.00
2023-04-21T23:33:29.512Z,99843.81
2023-04-21T23:35:57.011Z,99847.34
2023-04-21T23:38:24.001Z,99852.63
2023-04-21T23:40:50.947Z,99859.69
2023-04-21T23:43:17.999Z,99871.16
2023-04-21T23:45:45.487Z,99877.34
2023-04-21T23:48:12.951Z,99879.13
2023-04-21T23:50:39.987Z,99885.28
2023-04-21T23:53:07.010Z,99889.72
2023-04-21T23:55:34.377Z,99892.34
2023-04-21T23:58:01.760Z,99896.78
